createdAt,value
2022-08-17T00:01:32.029Z,3.13
2022-08-17T00:04:40.028Z,3.67
2022-08-17T00:07:29.380Z,3.17
2022-08-17T00:10:18.893Z,3.13
2022-08-17T00:13:21.931Z,4.22
2022-08-17T00:19:08.644Z,3.65
2022-08-17T00:22:32.892Z,4.20
2022-08-17T00:25:18.005Z,3.53
2022-08-17T00:28:08.513Z,3.42
2022-08-17T00:30:58.959Z,3.63
2022-08-17T00:33:48.497Z,4.88
2022-08-17T00:36:38.214Z,3.85
2022-08-17T00:39:28.037Z,4.95
2022-08-17T00:42:20.019Z,4.57
2022-08-17T00:45:11.793Z,4.20
2022-08-17T00:48:01.130Z,5.00
2022-08-17T00:51:07.344Z,5.32
2022-08-17T00:54:20.403Z,5.07
2022-08-17T00:57:21.538Z,5.05
2022-08-17T01:00:19.853Z,4.65
2022-08-17T01:03:15.366Z,4.97
2022-08-17T01:06:07.152Z,5.25
2022-08-17T01:08:59.400Z,5.63
2022-08-17T01:11:54.002Z,5.38
2022-08-17T01:14:43.510Z,5.95
2022-08-17T01:17:34.456Z,6.97
2022-08-17T01:20:25.053Z,6.53
2022-08-17T01:23:20.845Z,5.45
2022-08-17T01:26:10.855Z,6.18
2022-08-17T01:29:01.957Z,6.88
2022-08-17T01:31:57.034Z,6.85
2022-08-17T01:34:50.518Z,6.45
2022-08-17T01:37:43.630Z,6.70
2022-08-17T01:40:33.905Z,5.53
2022-08-17T01:43:37.387Z,6.72
2022-08-17T01:46:30.418Z,6.78
2022-08-17T01:49:21.020Z,6.47
2022-08-17T01:52:12.658Z,5.70
2022-08-17T01:55:02.747Z,6.13
2022-08-17T01:57:52.216Z,7.00
2022-08-17T02:00:59.425Z,7.40
2022-08-17T02:03:59.376Z,6.97
2022-08-17T02:06:53.170Z,7.65
2022-08-17T02:09:45.080Z,7.90
2022-08-17T02:12:42.197Z,7.55
2022-08-17T02:15:31.806Z,6.82
2022-08-17T02:18:21.722Z,6.85
2022-08-17T02:21:11.773Z,7.38
2022-08-17T02:24:01.267Z,6.15
2022-08-17T02:26:50.549Z,7.22
2022-08-17T02:29:40.489Z,8.23
2022-08-17T02:32:29.784Z,8.00
2022-08-17T02:35:20.076Z,17.88
2022-08-17T02:38:11.938Z,10.02
2022-08-17T02:41:01.890Z,11.40
2022-08-17T02:43:51.259Z,8.35
2022-08-17T02:46:41.072Z,7.53
2022-08-17T02:49:30.505Z,8.45
2022-08-17T02:52:43.238Z,7.35
2022-08-17T02:55:33.700Z,7.78
2022-08-17T02:58:34.567Z,7.93
2022-08-17T03:01:25.131Z,8.63
2022-08-17T03:04:15.275Z,7.95
2022-08-17T03:07:06.110Z,8.45
2022-08-17T03:09:56.901Z,7.90
2022-08-17T03:12:48.691Z,6.63
2022-08-17T03:15:40.798Z,6.83
2022-08-17T03:18:33.990Z,7.10
2022-08-17T03:21:23.477Z,7.63
2022-08-17T03:24:12.892Z,7.05
2022-08-17T03:27:02.384Z,7.20
2022-08-17T03:29:51.722Z,7.03
2022-08-17T03:32:53.527Z,6.88
2022-08-17T03:35:43.037Z,7.38
2022-08-17T03:38:39.176Z,6.95
2022-08-17T03:41:29.487Z,8.48
2022-08-17T03:44:20.153Z,9.07
2022-08-17T03:47:28.191Z,6.47
2022-08-17T03:50:55.955Z,5.88
2022-08-17T03:54:16.617Z,7.68
2022-08-17T03:57:10.330Z,6.40
2022-08-17T04:00:01.207Z,6.00
2022-08-17T04:03:01.212Z,6.38
2022-08-17T04:05:51.031Z,5.97
2022-08-17T04:08:40.962Z,6.32
2022-08-17T04:11:30.276Z,6.22
2022-08-17T04:14:20.511Z,6.30
2022-08-17T04:17:10.068Z,5.20
2022-08-17T04:19:59.808Z,6.03
2022-08-17T04:23:13.525Z,5.63
2022-08-17T04:26:03.609Z,4.63
2022-08-17T04:28:53.343Z,4.55
2022-08-17T04:31:43.801Z,4.68
2022-08-17T04:34:34.873Z,4.68
2022-08-17T04:37:24.960Z,4.45
2022-08-17T04:40:41.249Z,5.22
2022-08-17T04:43:33.119Z,4.03
2022-08-17T04:46:25.792Z,4.45
2022-08-17T04:52:04.914Z,5.55
2022-08-17T04:54:54.809Z,4.28
2022-08-17T04:57:45.217Z,5.78
2022-08-17T05:00:35.418Z,5.90
2022-08-17T05:03:25.471Z,4.00
2022-08-17T05:06:15.007Z,4.95
2022-08-17T05:09:07.030Z,4.18
2022-08-17T05:11:56.566Z,4.17
2022-08-17T05:14:46.493Z,4.32
2022-08-17T05:17:36.025Z,4.82
2022-08-17T05:20:29.373Z,6.70
2022-08-17T05:23:20.476Z,5.50
2022-08-17T05:26:13.558Z,3.55
2022-08-17T05:29:15.284Z,3.50
2022-08-17T05:32:39.479Z,3.63
2022-08-17T05:35:25.848Z,4.00
2022-08-17T05:38:16.820Z,3.88
2022-08-17T05:41:09.364Z,3.83
2022-08-17T05:46:53.189Z,14.45
2022-08-17T05:49:42.911Z,19.05
2022-08-17T05:52:46.577Z,16.30
2022-08-17T05:56:30.291Z,5.68
2022-08-17T05:59:58.301Z,9.07
2022-08-17T06:03:31.971Z,8.35
2022-08-17T06:06:40.775Z,3.38
2022-08-17T06:09:53.733Z,3.30
2022-08-17T06:13:13.110Z,12.25
2022-08-17T06:16:28.172Z,9.77
2022-08-17T06:19:41.280Z,6.78
2022-08-17T06:22:37.702Z,8.73
2022-08-17T06:25:52.758Z,13.05
2022-08-17T06:29:21.542Z,7.20
2022-08-17T06:32:14.725Z,3.38
2022-08-17T06:35:06.479Z,3.03
2022-08-17T06:38:17.328Z,2.80
2022-08-17T06:42:05.100Z,2.85
2022-08-17T06:45:05.323Z,2.20
2022-08-17T06:48:00.123Z,3.15
2022-08-17T06:51:10.843Z,2.50
2022-08-17T06:54:08.774Z,2.83
2022-08-17T06:57:04.278Z,2.55
2022-08-17T07:00:01.335Z,3.30
2022-08-17T07:03:20.073Z,2.80
2022-08-17T07:06:19.805Z,2.72
2022-08-17T07:09:12.787Z,2.38
2022-08-17T07:12:04.958Z,2.83
2022-08-17T07:15:05.697Z,2.83
2022-08-17T07:17:55.421Z,2.47
2022-08-17T07:20:52.316Z,2.55
2022-08-17T07:24:02.903Z,2.83
2022-08-17T07:27:11.073Z,2.47
2022-08-17T07:30:10.857Z,3.55
2022-08-17T07:33:13.386Z,2.85
2022-08-17T07:36:03.632Z,2.97
2022-08-17T07:39:00.014Z,3.13
2022-08-17T07:41:57.967Z,3.22
2022-08-17T07:44:56.215Z,2.90
2022-08-17T07:48:15.746Z,3.10
2022-08-17T07:51:35.203Z,3.03
2022-08-17T07:54:34.087Z,3.28
2022-08-17T07:57:29.789Z,2.53
2022-08-17T08:00:29.203Z,2.80
2022-08-17T08:03:33.264Z,2.30
2022-08-17T08:06:27.394Z,2.88
2022-08-17T08:09:50.465Z,2.28
2022-08-17T08:15:39.145Z,2.42
2022-08-17T08:18:38.649Z,2.47
2022-08-17T08:21:53.673Z,2.63
2022-08-17T08:25:12.448Z,2.85
2022-08-17T08:28:39.411Z,2.33
2022-08-17T08:31:28.997Z,2.67
2022-08-17T08:34:58.959Z,2.58
2022-08-17T08:37:51.010Z,2.33
2022-08-17T08:41:21.289Z,2.25
2022-08-17T08:45:00.243Z,2.65
2022-08-17T08:47:42.664Z,2.58
2022-08-17T08:50:43.742Z,2.00
2022-08-17T08:53:52.808Z,2.60
2022-08-17T08:57:21.469Z,2.08
2022-08-17T09:00:21.374Z,2.83
2022-08-17T09:03:52.807Z,2.13
2022-08-17T09:07:09.753Z,2.90
2022-08-17T09:10:18.382Z,2.35
2022-08-17T09:13:26.167Z,2.60
2022-08-17T09:16:31.078Z,2.33
2022-08-17T09:19:32.228Z,2.58
2022-08-17T09:22:43.969Z,2.80
2022-08-17T09:25:38.318Z,2.38
2022-08-17T09:28:37.479Z,5.25
2022-08-17T09:31:48.164Z,2.50
2022-08-17T09:34:50.942Z,1.85
2022-08-17T09:38:01.990Z,2.10
2022-08-17T09:41:17.447Z,2.47
2022-08-17T09:44:40.859Z,2.58
2022-08-17T09:47:43.269Z,1.85
2022-08-17T09:51:03.663Z,1.98
2022-08-17T09:54:01.832Z,2.75
2022-08-17T09:57:29.650Z,2.53
2022-08-17T10:00:26.820Z,2.45
2022-08-17T10:03:35.352Z,2.70
2022-08-17T10:06:31.994Z,2.22
2022-08-17T10:09:29.294Z,1.98
2022-08-17T10:12:30.212Z,4.22
2022-08-17T10:15:31.884Z,9.65
2022-08-17T10:18:33.281Z,7.70
2022-08-17T10:21:43.874Z,3.97
2022-08-17T10:25:23.881Z,3.17
2022-08-17T10:28:19.723Z,3.00
2022-08-17T10:34:48.703Z,3.90
2022-08-17T10:37:38.642Z,2.85
2022-08-17T10:41:02.615Z,2.42
2022-08-17T10:44:40.457Z,7.30
2022-08-17T10:48:05.039Z,3.03
2022-08-17T10:51:01.401Z,2.88
2022-08-17T10:53:52.355Z,2.67
2022-08-17T10:56:48.170Z,2.97
2022-08-17T10:59:37.696Z,2.35
2022-08-17T11:02:53.200Z,2.95
2022-08-17T11:05:55.061Z,2.83
2022-08-17T11:09:00.582Z,3.90
2022-08-17T11:12:28.016Z,3.28
2022-08-17T11:15:48.335Z,2.85
2022-08-17T11:18:38.068Z,2.97
2022-08-17T11:21:53.839Z,5.70
2022-08-17T11:24:49.229Z,3.75
2022-08-17T11:27:39.231Z,3.70
2022-08-17T11:31:00.767Z,3.13
2022-08-17T11:34:00.116Z,3.05
2022-08-17T11:37:07.935Z,3.63
2022-08-17T11:40:14.111Z,4.45
2022-08-17T11:43:45.273Z,5.10
2022-08-17T11:47:14.738Z,3.05
2022-08-17T11:50:46.110Z,4.00
2022-08-17T11:53:38.793Z,3.08
2022-08-17T11:56:37.068Z,7.07
2022-08-17T11:59:40.608Z,3.38
2022-08-17T12:02:33.064Z,4.60
2022-08-17T12:08:19.030Z,3.20
2022-08-17T12:11:13.261Z,3.33
2022-08-17T12:14:03.423Z,3.58
2022-08-17T12:17:00.429Z,5.88
2022-08-17T12:19:50.148Z,3.35
2022-08-17T12:23:06.601Z,3.30
2022-08-17T12:25:59.305Z,3.35
2022-08-17T12:31:50.006Z,2.92
2022-08-17T12:34:44.699Z,3.17
2022-08-17T12:37:37.882Z,3.35
2022-08-17T12:40:33.053Z,3.10
2022-08-17T12:43:27.788Z,3.60
2022-08-17T12:46:19.309Z,3.83
2022-08-17T12:49:25.064Z,3.45
2022-08-17T12:52:21.430Z,3.67
2022-08-17T12:55:26.853Z,5.13
2022-08-17T12:58:26.583Z,3.10
2022-08-17T13:01:18.687Z,4.15
2022-08-17T13:04:13.662Z,3.28
2022-08-17T13:07:03.109Z,3.55
2022-08-17T13:09:53.375Z,2.97
2022-08-17T13:12:43.193Z,4.15
2022-08-17T13:15:44.701Z,3.88
2022-08-17T13:18:50.553Z,4.30
2022-08-17T13:21:49.461Z,3.10
2022-08-17T13:24:39.112Z,2.95
2022-08-17T13:27:31.130Z,3.42
2022-08-17T13:30:29.296Z,4.28
2022-08-17T13:33:44.532Z,4.55
2022-08-17T13:36:34.979Z,4.88
2022-08-17T13:39:27.191Z,4.60
2022-08-17T13:42:31.822Z,4.28
2022-08-17T13:45:34.869Z,3.78
2022-08-17T13:48:34.917Z,5.18
2022-08-17T13:51:43.254Z,7.40
2022-08-17T13:54:35.387Z,4.80
2022-08-17T13:57:26.964Z,4.13
2022-08-17T14:00:33.135Z,4.70
2022-08-17T14:03:24.445Z,3.83
2022-08-17T14:06:14.647Z,3.60
2022-08-17T14:09:49.669Z,5.85
2022-08-17T14:12:42.240Z,4.25
2022-08-17T14:15:55.725Z,6.22
2022-08-17T14:18:56.218Z,4.65
2022-08-17T14:21:48.875Z,4.70
2022-08-17T14:24:44.883Z,5.18
2022-08-17T14:27:52.222Z,4.63
2022-08-17T14:30:44.483Z,5.32
2022-08-17T14:33:35.891Z,4.82
2022-08-17T14:36:25.589Z,4.90
2022-08-17T14:39:15.823Z,5.53
2022-08-17T14:42:05.876Z,5.15
2022-08-17T14:44:57.396Z,5.53
2022-08-17T14:47:47.915Z,5.75
2022-08-17T14:50:42.334Z,6.20
2022-08-17T14:53:32.329Z,6.03
2022-08-17T14:56:23.096Z,6.70
2022-08-17T14:59:12.642Z,7.47
2022-08-17T15:02:04.404Z,6.97
2022-08-17T15:04:54.299Z,6.43
2022-08-17T15:07:47.343Z,7.17
2022-08-17T15:10:37.621Z,8.23
2022-08-17T15:13:29.196Z,8.32
2022-08-17T15:16:18.922Z,7.63
2022-08-17T15:19:10.069Z,7.25
2022-08-17T15:21:59.673Z,6.25
2022-08-17T15:24:49.655Z,7.50
2022-08-17T15:27:39.667Z,6.57
2022-08-17T15:30:30.297Z,6.95
2022-08-17T15:33:25.088Z,6.28
2022-08-17T15:36:15.478Z,6.88
2022-08-17T15:39:05.311Z,6.35
2022-08-17T15:41:58.735Z,7.13
2022-08-17T15:44:49.252Z,7.03
2022-08-17T15:47:39.723Z,6.47
2022-08-17T15:50:29.190Z,6.63
2022-08-17T15:53:20.444Z,7.00
2022-08-17T15:56:10.747Z,6.63
2022-08-17T15:59:01.627Z,6.82
2022-08-17T16:03:01.492Z,7.88
2022-08-17T16:05:14.845Z,7.57
2022-08-17T16:08:07.609Z,8.25
2022-08-17T16:11:00.539Z,8.73
2022-08-17T16:13:55.035Z,8.98
2022-08-17T16:16:47.075Z,8.85
2022-08-17T16:19:37.836Z,10.55
2022-08-17T16:22:39.810Z,11.15
2022-08-17T16:25:38.900Z,12.88
2022-08-17T16:28:43.545Z,13.15
2022-08-17T16:31:33.463Z,13.77
2022-08-17T16:34:23.900Z,14.07
2022-08-17T16:37:14.658Z,13.35
2022-08-17T16:40:08.344Z,11.60
2022-08-17T16:42:58.330Z,12.27
2022-08-17T16:45:52.079Z,11.80
2022-08-17T16:48:41.905Z,11.32
2022-08-17T16:51:33.651Z,11.13
2022-08-17T16:54:23.333Z,11.20
2022-08-17T16:57:15.099Z,10.90
2022-08-17T17:00:12.725Z,12.45
2022-08-17T17:03:26.721Z,9.15
2022-08-17T17:06:37.420Z,9.13
2022-08-17T17:09:36.792Z,8.55
2022-08-17T17:12:59.573Z,9.75
2022-08-17T17:19:06.969Z,8.65
2022-08-17T17:22:16.452Z,9.45
2022-08-17T17:25:28.477Z,8.13
2022-08-17T17:28:56.773Z,8.25
2022-08-17T17:31:57.425Z,8.73
2022-08-17T17:34:51.726Z,8.68
2022-08-17T17:37:45.827Z,8.40
2022-08-17T17:40:41.605Z,8.98
2022-08-17T17:43:39.663Z,9.73
2022-08-17T17:46:38.930Z,9.27
2022-08-17T17:49:34.179Z,7.80
2022-08-17T17:52:44.182Z,8.48
2022-08-17T17:55:42.327Z,9.00
2022-08-17T17:58:46.558Z,9.18
2022-08-17T18:01:54.703Z,8.70
2022-08-17T18:05:01.659Z,8.75
2022-08-17T18:08:15.648Z,11.63
2022-08-17T18:11:24.380Z,9.65
2022-08-17T18:14:37.330Z,10.07
2022-08-17T18:17:31.111Z,8.80
2022-08-17T18:20:36.035Z,9.80
2022-08-17T18:23:36.038Z,9.45
2022-08-17T18:26:34.658Z,9.75
2022-08-17T18:29:27.582Z,8.93
2022-08-17T18:35:32.003Z,9.00
2022-08-17T18:38:28.668Z,9.05
2022-08-17T18:41:31.912Z,8.80
2022-08-17T18:44:36.647Z,9.88
2022-08-17T18:47:30.217Z,9.77
2022-08-17T18:50:30.604Z,10.27
2022-08-17T18:53:39.833Z,9.43
2022-08-17T18:56:35.061Z,10.35
2022-08-17T18:59:53.467Z,9.63
2022-08-17T19:02:59.643Z,9.70
2022-08-17T19:05:57.402Z,10.23
2022-08-17T19:08:47.836Z,8.93
2022-08-17T19:11:37.921Z,9.77
2022-08-17T19:14:30.789Z,9.52
2022-08-17T19:17:43.343Z,11.20
2022-08-17T19:20:47.852Z,10.15
2022-08-17T19:24:14.269Z,11.40
2022-08-17T19:27:13.456Z,10.93
2022-08-17T19:30:12.908Z,10.35
2022-08-17T19:33:03.495Z,9.82
2022-08-17T19:36:19.749Z,9.80
2022-08-17T19:39:39.257Z,10.30
2022-08-17T19:42:38.735Z,11.10
2022-08-17T19:46:14.692Z,11.38
2022-08-17T19:49:41.899Z,11.93
2022-08-17T19:52:51.380Z,12.02
2022-08-17T19:56:22.332Z,11.73
2022-08-17T19:59:36.138Z,11.15
2022-08-17T20:02:48.011Z,11.77
2022-08-17T20:06:09.149Z,12.43
2022-08-17T20:08:59.885Z,13.20
2022-08-17T20:12:00.093Z,13.50
2022-08-17T20:15:12.393Z,13.32
2022-08-17T20:18:07.609Z,12.43
2022-08-17T20:21:20.204Z,12.93
2022-08-17T20:24:25.193Z,12.90
2022-08-17T20:27:20.520Z,13.07
2022-08-17T20:30:34.037Z,12.32
2022-08-17T20:33:38.467Z,12.90
2022-08-17T20:36:28.197Z,12.35
2022-08-17T20:39:37.086Z,12.50
2022-08-17T20:42:28.219Z,12.05
2022-08-17T20:45:26.432Z,12.82
2022-08-17T20:48:36.846Z,12.50
2022-08-17T20:51:33.392Z,12.77
2022-08-17T20:54:43.305Z,11.95
2022-08-17T20:57:32.956Z,12.40
2022-08-17T21:00:31.819Z,12.40
2022-08-17T21:03:24.379Z,11.57
2022-08-17T21:09:31.479Z,11.27
2022-08-17T21:12:59.054Z,11.52
2022-08-17T21:16:07.835Z,11.75
2022-08-17T21:19:22.208Z,11.68
2022-08-17T21:22:36.780Z,11.13
2022-08-17T21:25:53.402Z,11.60
2022-08-17T21:29:14.718Z,12.20
2022-08-17T21:32:30.092Z,11.43
2022-08-17T21:35:30.233Z,11.95
2022-08-17T21:38:24.455Z,12.10
2022-08-17T21:41:49.252Z,12.10
2022-08-17T21:44:43.496Z,12.88
2022-08-17T21:47:33.891Z,11.77
2022-08-17T21:50:26.270Z,12.32
2022-08-17T21:53:49.077Z,11.50
2022-08-17T21:56:42.087Z,12.52
2022-08-17T21:59:41.054Z,11.90
2022-08-17T22:02:36.081Z,12.45
2022-08-17T22:05:37.852Z,12.00
2022-08-17T22:08:27.574Z,12.07
2022-08-17T22:11:18.347Z,12.40
2022-08-17T22:14:19.182Z,12.10
2022-08-17T22:17:21.910Z,13.27
2022-08-17T22:20:18.806Z,12.93
2022-08-17T22:23:32.893Z,13.18
2022-08-17T22:26:26.595Z,12.75
2022-08-17T22:29:43.839Z,14.00
2022-08-17T22:32:44.068Z,12.80
2022-08-17T22:35:44.800Z,13.25
2022-08-17T22:38:35.422Z,12.63
2022-08-17T22:41:37.434Z,12.88
2022-08-17T22:44:35.244Z,13.13
2022-08-17T22:47:42.463Z,13.57
2022-08-17T22:50:36.587Z,13.85
2022-08-17T22:53:45.481Z,15.90
2022-08-17T22:56:54.258Z,21.75
2022-08-17T22:59:54.777Z,23.33
2022-08-17T23:03:12.504Z,26.42
2022-08-17T23:06:12.683Z,28.65
2022-08-17T23:09:05.195Z,30.38
2022-08-17T23:11:59.646Z,30.35
2022-08-17T23:14:52.480Z,30.75
2022-08-17T23:17:43.152Z,31.08
2022-08-17T23:20:41.761Z,36.28
2022-08-17T23:23:31.325Z,39.47
2022-08-17T23:26:22.376Z,37.40
2022-08-17T23:29:11.713Z,32.25
2022-08-17T23:32:02.640Z,24.13
2022-08-17T23:34:52.622Z,23.38
2022-08-17T23:37:42.415Z,17.38
2022-08-17T23:40:32.497Z,15.93
2022-08-17T23:43:24.705Z,14.95
2022-08-17T23:46:18.432Z,14.25
2022-08-17T23:49:08.131Z,13.95
2022-08-17T23:51:57.784Z,13.93
2022-08-17T23:54:48.817Z,14.75
2022-08-17T23:57:39.599Z,13.65
